Katharina — V2DQ5 — position and weather

sailwx.info

Track history (hours):
 
Tides and Currents Weather Stations Pressure Air Temp Water Temp Dewpoint Dewpoint Depression Visibility Wind Speed Wind Dir Waves Ship Positions

Katharina

Last reported at 2015-Sep-03 08:32 UTC. Time now 2015-Sep-03 08:57 UTC.
Position N 53°45' W 000°16'.

Length 146 m; draft 6.7 m.

Type: Ship. MMSI: 305305000.

Date/timePositionNaut miles runAvg speedWind from/ knotsBaromVisibWave heightAir tempDewpointWater temp
2015-Sep-03 08:32N 53°45' W 000°16'0 0.0
2015-Sep-03 07:32N 53°45' W 000°16'0 0.0
2015-Sep-03 06:33N 53°45' W 000°16'0 0.4
2015-Sep-03 05:34N 53°44' W 000°17'8 8.0
2015-Sep-03 04:34N 53°38' W 000°09'1211.6
2015-Sep-03 03:33N 53°33' E 000°09'51 9.6
2015-Sep-02 22:14N 53°10' E 001°25'7 9.8
2015-Sep-02 21:33N 53°05' E 001°34'10 9.8
2015-Sep-02 20:33N 52°59' E 001°46'9812.3
2015-Sep-02 12:34N 52°01' E 003°56'1312.7
2015-Sep-02 11:33N 51°55' E 004°14'7 6.9
2015-Sep-02 10:33N 51°53' E 004°25'0 0.0
2015-Sep-02 09:22N 51°53' E 004°25'0 0.0
2015-Sep-02 08:22N 51°53' E 004°25'0 0.0
2015-Sep-02 07:22N 51°53' E 004°25'0 0.0
2015-Sep-02 06:16N 51°53' E 004°25'0 0.0
2015-Sep-02 05:31N 51°53' E 004°25'0 0.0
2015-Sep-02 04:31N 51°53' E 004°25'0 0.0
2015-Sep-02 03:28N 51°53' E 004°25'0 0.0
2015-Sep-02 02:22N 51°53' E 004°25'0 0.0
2015-Sep-01 23:28N 51°53' E 004°25'0 0.0
2015-Sep-01 22:10N 51°53' E 004°25'0 0.0
2015-Sep-01 20:16N 51°53' E 004°25'0 0.0
2015-Sep-01 19:28N 51°53' E 004°25'0 0.0
2015-Sep-01 18:16N 51°53' E 004°25'1 0.0
2015-Aug-30 21:13N 51°54' E 004°24'6 8.8
2015-Aug-30 20:33N 51°55' E 004°14'9 9.3
2015-Aug-30 19:33N 51°60' E 004°01'  
Track history (hours):
 
Tides and Currents Weather Stations Pressure Air Temp Water Temp Dewpoint Dewpoint Depression Visibility Wind Speed Wind Dir Waves Ship Positions

Katharina

Last reported at 2015-Sep-03 08:32 UTC. Time now 2015-Sep-03 08:57 UTC.
Position N 53°45' W 000°16'.

Length 146 m; draft 6.7 m.

Type: Ship. MMSI: 305305000.

Date/timePositionNaut miles runAvg speedWind from/ knotsBaromVisibWave heightAir tempDewpointWater temp
2015-Sep-03 08:32N 53°45' W 000°16'0 0.0
2015-Sep-03 07:32N 53°45' W 000°16'0 0.0
2015-Sep-03 06:33N 53°45' W 000°16'0 0.4
2015-Sep-03 05:34N 53°44' W 000°17'8 8.0
2015-Sep-03 04:34N 53°38' W 000°09'1211.6
2015-Sep-03 03:33N 53°33' E 000°09'51 9.6
2015-Sep-02 22:14N 53°10' E 001°25'7 9.8
2015-Sep-02 21:33N 53°05' E 001°34'10 9.8
2015-Sep-02 20:33N 52°59' E 001°46'9812.3
2015-Sep-02 12:34N 52°01' E 003°56'1312.7
2015-Sep-02 11:33N 51°55' E 004°14'7 6.9
2015-Sep-02 10:33N 51°53' E 004°25'0 0.0
2015-Sep-02 09:22N 51°53' E 004°25'0 0.0
2015-Sep-02 08:22N 51°53' E 004°25'0 0.0
2015-Sep-02 07:22N 51°53' E 004°25'0 0.0
2015-Sep-02 06:16N 51°53' E 004°25'0 0.0
2015-Sep-02 05:31N 51°53' E 004°25'0 0.0
2015-Sep-02 04:31N 51°53' E 004°25'0 0.0
2015-Sep-02 03:28N 51°53' E 004°25'0 0.0
2015-Sep-02 02:22N 51°53' E 004°25'0 0.0
2015-Sep-01 23:28N 51°53' E 004°25'0 0.0
2015-Sep-01 22:10N 51°53' E 004°25'0 0.0
2015-Sep-01 20:16N 51°53' E 004°25'0 0.0
2015-Sep-01 19:28N 51°53' E 004°25'0 0.0
2015-Sep-01 18:16N 51°53' E 004°25'1 0.0
2015-Aug-30 21:13N 51°54' E 004°24'6 8.8
2015-Aug-30 20:33N 51°55' E 004°14'9 9.3
2015-Aug-30 19:33N 51°60' E 004°01'  

Dump ship's entire track history